Time;durP1;ratioP1;P1;durP2;ratioP2;P2;SDS_P1;SDS_P2;PMS_P1;PMS_P2;Temp;Humidity;BMP_temperature;BMP_pressure;BME280_temperature;BME280_humidity;BME280_pressure;Samples;Min_cycle;Max_cycle;Signal;HPM_P1;HPM_P2
2022/02/05 00:02:12;;;;;;;10.43;3.53;;;4.50;5.20;;;;;;5049901;28;20203;-75
2022/02/05 00:04:39;;;;;;;11.80;4.77;;;4.60;1.00;;;;;;5035251;28;20198;-75
2022/02/05 00:07:09;;;;;;;11.80;4.80;;;4.60;98.30;;;;;;5059826;28;20222;-75
2022/02/05 00:09:48;;;;;;;10.70;4.10;;;4.60;59.30;;;;;;5060299;28;20297;-74
2022/02/05 00:12:32;;;;;;;12.87;4.87;;;4.50;12.70;;;;;;5049383;28;20226;-75
2022/02/05 00:15:21;;;;;;;9.63;4.10;;;4.50;99.90;;;;;;5049680;28;20580;-74
2022/02/05 00:40:04;;;;;;;14.00;5.40;;;4.60;1.00;;;;;;5052556;28;20671;-75
2022/02/05 00:42:38;;;;;;;13.87;5.70;;;4.60;1.00;;;;;;5056263;28;20672;-74
2022/02/05 00:45:08;;;;;;;13.33;5.27;;;4.60;1.00;;;;;;5069174;22;20225;-76
2022/02/05 00:47:38;;;;;;;12.63;5.23;;;4.50;1.00;;;;;;5086042;28;20213;-76
2022/02/05 00:50:10;;;;;;;12.23;5.87;;;4.50;1.00;;;;;;5095295;28;20205;-75
2022/02/05 00:52:37;;;;;;;10.90;6.83;;;4.60;1.00;;;;;;5095194;28;20197;-76
2022/02/05 00:55:10;;;;;;;14.10;6.37;;;4.50;99.90;;;;;;5094262;28;20198;-76
2022/02/05 00:57:46;;;;;;;10.33;6.00;;;4.40;1.00;;;;;;5094968;28;20205;-76
2022/02/05 01:00:18;;;;;;;9.97;5.70;;;4.40;1.00;;;;;;5094157;28;20201;-76
2022/02/05 01:02:45;;;;;;;11.87;6.20;;;4.40;99.90;;;;;;5094233;28;20190;-76
2022/02/05 01:05:12;;;;;;;12.17;6.33;;;4.30;99.90;;;;;;5094778;28;20221;-76
2022/02/05 01:07:39;;;;;;;11.20;6.60;;;4.20;1.00;;;;;;5094796;28;20245;-76
2022/02/05 01:10:09;;;;;;;12.17;6.43;;;4.10;1.00;;;;;;5093562;28;20206;-76
2022/02/05 01:12:38;;;;;;;13.00;6.80;;;4.00;1.00;;;;;;5095084;28;20277;-76
2022/02/05 01:15:07;;;;;;;13.27;6.80;;;4.00;1.00;;;;;;5093932;28;20611;-76
2022/02/05 01:17:38;;;;;;;14.97;7.47;;;4.00;1.00;;;;;;5095025;28;20268;-76
2022/02/05 01:20:32;;;;;;;17.27;7.90;;;4.00;1.00;;;;;;5095068;28;20302;-76
2022/02/05 01:23:04;;;;;;;15.57;7.90;;;3.90;30.20;;;;;;5093609;28;20202;-76
2022/02/05 01:25:37;;;;;;;13.10;7.77;;;4.00;28.80;;;;;;5094157;28;20194;-76
2022/02/05 01:28:10;;;;;;;20.10;8.33;;;4.00;99.90;;;;;;5093330;28;20686;-76
2022/02/05 01:30:43;;;;;;;12.97;7.07;;;4.00;1.00;;;;;;5094212;28;20635;-76
2022/02/05 01:33:26;;;;;;;15.93;7.50;;;4.00;1.00;;;;;;5093547;28;20225;-75
2022/02/05 01:36:11;;;;;;;13.07;6.63;;;4.00;1.00;;;;;;5093035;28;20278;-78
2022/02/05 01:52:51;;;;;;;15.73;6.70;;;4.20;99.90;;;;;;5091934;28;20264;-76
2022/02/05 01:55:32;;;;;;;17.40;7.17;;;4.30;99.90;;;;;;5092348;28;20204;-75
2022/02/05 01:58:13;;;;;;;16.40;7.67;;;4.30;99.90;;;;;;5093052;28;20212;-76
2022/02/05 02:06:15;;;;;;;13.83;7.40;;;4.20;1.00;;;;;;5093042;28;20670;-76
2022/02/05 02:11:37;;;;;;;15.00;7.53;;;4.30;99.90;;;;;;5093206;28;20203;-76
2022/02/05 02:14:31;;;;;;;14.80;6.33;;;4.40;1.00;;;;;;5093898;28;20205;-76
2022/02/05 02:19:55;;;;;;;16.33;6.80;;;4.60;1.00;;;;;;5081017;28;20200;-76
2022/02/05 02:22:30;;;;;;;17.73;6.77;;;4.60;99.90;;;;;;5092111;28;20204;-76
2022/02/05 02:25:04;;;;;;;17.10;6.50;;;4.60;1.00;;;;;;5092933;28;20662;-76
2022/02/05 02:27:38;;;;;;;11.57;5.50;;;4.60;1.00;;;;;;5092304;28;20220;-75
2022/02/05 02:30:14;;;;;;;13.17;6.23;;;4.80;1.00;;;;;;5093482;28;20606;-76
2022/02/05 02:32:45;;;;;;;9.57;4.80;;;4.80;1.00;;;;;;5092162;28;20726;-76
2022/02/05 02:35:16;;;;;;;16.63;5.77;;;4.80;1.00;;;;;;5093018;28;20292;-76
2022/02/05 02:37:50;;;;;;;12.23;5.80;;;4.80;1.00;;;;;;5092624;28;20201;-76
2022/02/05 02:40:26;;;;;;;15.60;5.73;;;4.80;1.00;;;;;;5093556;28;20197;-76
2022/02/05 02:42:56;;;;;;;14.37;5.37;;;4.70;1.00;;;;;;5092923;28;20209;-76
2022/02/05 02:45:23;;;;;;;15.53;5.97;;;4.80;99.90;;;;;;5092266;28;20205;-75
2022/02/05 02:47:50;;;;;;;12.17;5.30;;;4.80;39.70;;;;;;5092547;28;20244;-76
2022/02/05 02:50:30;;;;;;;12.10;5.67;;;4.80;99.90;;;;;;5092510;28;20202;-76
2022/02/05 02:58:30;;;;;;;11.33;5.30;;;4.60;99.90;;;;;;5092028;28;20208;-76
2022/02/05 03:00:59;;;;;;;9.70;4.77;;;4.70;99.90;;;;;;5091830;28;20231;-76
2022/02/05 03:03:26;;;;;;;10.87;4.73;;;4.70;99.90;;;;;;5091667;28;20228;-76
2022/02/05 03:05:53;;;;;;;16.50;5.90;;;4.80;99.90;;;;;;5092824;28;20201;-76
2022/02/05 03:08:22;;;;;;;11.67;5.27;;;4.80;1.00;;;;;;5091990;28;20679;-75
2022/02/05 03:10:49;;;;;;;12.90;5.80;;;4.60;99.90;;;;;;5091814;28;20202;-76
2022/02/05 03:13:16;;;;;;;13.43;5.33;;;4.50;1.00;;;;;;5091818;28;20651;-76
2022/02/05 03:15:43;;;;;;;15.97;5.80;;;4.60;1.00;;;;;;5090709;28;20204;-76
2022/02/05 03:18:14;;;;;;;13.97;5.40;;;4.70;1.00;;;;;;5092077;28;20197;-76
2022/02/05 03:20:41;;;;;;;13.17;6.00;;;4.70;1.00;;;;;;5092445;28;20288;-76
2022/02/05 03:23:08;;;;;;;15.00;5.57;;;4.70;1.00;;;;;;5092152;28;20208;-76
2022/02/05 03:25:37;;;;;;;13.83;5.20;;;4.80;1.00;;;;;;5076264;28;20193;-76
2022/02/05 03:28:04;;;;;;;13.87;5.13;;;4.80;99.90;;;;;;5091785;28;20224;-76
2022/02/05 03:30:31;;;;;;;14.97;5.10;;;4.70;99.90;;;;;;5092533;28;20212;-76
2022/02/05 03:32:59;;;;;;;10.70;5.10;;;4.80;1.00;;;;;;5085993;28;20651;-76
2022/02/05 03:35:26;;;;;;;13.30;4.83;;;4.80;1.00;;;;;;5091562;28;20651;-76
2022/02/05 03:37:53;;;;;;;13.77;5.47;;;4.70;1.00;;;;;;5091488;28;20194;-72
2022/02/05 03:40:20;;;;;;;13.20;5.03;;;4.70;1.00;;;;;;5092198;28;20206;-72
2022/02/05 03:42:48;;;;;;;12.43;5.30;;;4.60;99.90;;;;;;5091393;28;20204;-74
2022/02/05 03:45:15;;;;;;;11.37;4.73;;;4.60;99.90;;;;;;5091056;28;20216;-74
2022/02/05 03:47:42;;;;;;;13.50;5.70;;;4.60;1.00;;;;;;5090866;28;20328;-74
2022/02/05 03:50:10;;;;;;;10.33;4.77;;;4.60;1.00;;;;;;5091503;28;20572;-74
2022/02/05 03:52:38;;;;;;;12.70;4.47;;;4.60;1.00;;;;;;5091185;28;20254;-74
2022/02/05 03:55:07;;;;;;;11.37;5.00;;;4.70;1.00;;;;;;5091807;28;20251;-74
2022/02/05 03:57:34;;;;;;;7.93;4.43;;;4.60;1.00;;;;;;5091432;28;20557;-74
2022/02/05 04:00:07;;;;;;;9.80;4.43;;;4.50;1.00;;;;;;5091084;28;20254;-74
2022/02/05 04:02:34;;;;;;;14.60;4.57;;;4.60;1.00;;;;;;5090290;28;20198;-74
2022/02/05 04:05:01;;;;;;;13.97;5.13;;;4.60;1.00;;;;;;5089792;28;20559;-74
2022/02/05 04:07:30;;;;;;;13.50;4.30;;;4.60;1.00;;;;;;5090985;28;20241;-74
2022/02/05 04:10:00;;;;;;;11.83;5.30;;;4.60;1.00;;;;;;5091965;28;20209;-74
2022/02/05 04:17:57;;;;;;;7.77;4.00;;;4.80;99.90;;;;;;5091482;28;20200;-69
2022/02/05 04:20:24;;;;;;;11.17;3.40;;;4.90;99.90;;;;;;5091632;28;20686;-70
2022/02/05 04:22:52;;;;;;;10.70;3.60;;;4.80;99.90;;;;;;5091071;28;20643;-70
2022/02/05 04:25:19;;;;;;;8.10;3.70;;;4.80;99.90;;;;;;5091339;28;20197;-69
2022/02/05 04:27:46;;;;;;;7.63;3.40;;;4.70;99.90;;;;;;5090513;28;20226;-70
2022/02/05 04:30:14;;;;;;;9.47;3.60;;;4.70;99.90;;;;;;5081826;28;20200;-70
2022/02/05 04:32:41;;;;;;;8.90;3.47;;;4.80;99.90;;;;;;5087656;28;20206;-69
2022/02/05 04:35:09;;;;;;;14.80;3.87;;;4.90;1.00;;;;;;5091352;28;20210;-69
2022/02/05 04:37:35;;;;;;;12.73;4.03;;;4.80;1.00;;;;;;5091587;28;20200;-70
2022/02/05 04:40:14;;;;;;;10.37;4.13;;;4.70;1.00;;;;;;5089969;28;20194;-69
2022/02/05 04:42:49;;;;;;;9.73;4.17;;;4.70;99.90;;;;;;5090752;28;20263;-69
2022/02/05 04:45:38;;;;;;;11.00;4.00;;;4.60;99.90;;;;;;5091094;28;20806;-69
2022/02/05 04:54:00;;;;;;;12.77;4.80;;;4.60;99.90;;;;;;5080157;28;20193;-69
2022/02/05 04:56:40;;;;;;;11.73;3.80;;;4.60;1.00;;;;;;5090492;28;20198;-70
2022/02/05 04:59:27;;;;;;;9.40;4.20;;;4.70;99.90;;;;;;5088284;28;20193;-69
2022/02/05 05:02:16;;;;;;;5.37;4.00;;;4.80;99.90;;;;;;5090503;28;20822;-69
2022/02/05 05:04:49;;;;;;;10.60;4.03;;;4.80;93.30;;;;;;5091078;28;20204;-69
2022/02/05 05:10:03;;;;;;;9.13;4.20;;;4.80;99.90;;;;;;5073533;28;20546;-69
2022/02/05 05:12:37;;;;;;;8.13;3.80;;;4.70;99.90;;;;;;5090527;28;20206;-69
2022/02/05 05:15:26;;;;;;;10.10;3.93;;;4.70;99.90;;;;;;5090177;28;20204;-69
2022/02/05 05:20:40;;;;;;;9.80;4.40;;;4.60;1.00;;;;;;5091128;28;20213;-69
2022/02/05 05:23:07;;;;;;;11.67;5.00;;;4.60;23.40;;;;;;5091136;28;20206;-69
2022/02/05 05:25:34;;;;;;;9.30;4.13;;;4.60;99.90;;;;;;5093644;28;20738;-71
2022/02/05 05:28:01;;;;;;;11.53;4.40;;;4.50;1.00;;;;;;5094280;28;20219;-69
2022/02/05 05:30:28;;;;;;;10.20;4.20;;;4.40;1.00;;;;;;5094493;28;20204;-69
2022/02/05 05:32:56;;;;;;;13.77;4.83;;;4.40;1.00;;;;;;5094395;28;20207;-69
2022/02/05 05:35:23;;;;;;;14.43;4.67;;;4.30;1.00;;;;;;5094874;28;20558;-69
2022/02/05 05:37:51;;;;;;;10.17;5.10;;;4.30;1.00;;;;;;5093632;28;20212;-69
2022/02/05 05:40:17;;;;;;;13.67;5.10;;;4.30;1.00;;;;;;5094633;28;20212;-69
2022/02/05 05:42:51;;;;;;;14.57;4.97;;;4.30;1.00;;;;;;5093916;28;20808;-69
2022/02/05 05:45:39;;;;;;;11.13;4.50;;;4.40;99.90;;;;;;5092832;28;20267;-69
2022/02/05 05:48:11;;;;;;;11.77;4.37;;;4.30;1.00;;;;;;5093331;28;20220;-69
2022/02/05 05:53:22;;;;;;;10.33;4.90;;;4.30;1.00;;;;;;5093942;28;20192;-69
2022/02/05 05:55:49;;;;;;;11.03;4.90;;;4.40;99.90;;;;;;5093581;28;20201;-69
2022/02/05 05:58:18;;;;;;;15.00;4.43;;;4.50;99.90;;;;;;5080399;28;20196;-69
2022/02/05 06:00:45;;;;;;;14.77;5.03;;;4.40;1.00;;;;;;5093823;28;20194;-70
2022/02/05 06:03:14;;;;;;;13.90;5.30;;;4.60;99.90;;;;;;5094116;28;20212;-69
2022/02/05 06:05:41;;;;;;;12.93;4.70;;;4.60;99.90;;;;;;5093726;28;20292;-70
2022/02/05 06:08:07;;;;;;;13.33;4.53;;;4.60;99.90;;;;;;5092572;28;20224;-69
2022/02/05 06:10:34;;;;;;;12.03;4.73;;;4.60;99.90;;;;;;5090235;28;20236;-69
2022/02/05 06:13:01;;;;;;;12.80;4.67;;;4.60;99.90;;;;;;5093973;28;20208;-69
2022/02/05 06:15:28;;;;;;;13.97;5.30;;;4.70;90.70;;;;;;5092956;28;20467;-70
2022/02/05 06:17:55;;;;;;;12.63;4.30;;;4.70;99.90;;;;;;5093216;28;20212;-69
2022/02/05 06:20:24;;;;;;;12.27;4.87;;;4.70;99.90;;;;;;5093590;28;20640;-69
2022/02/05 06:22:51;;;;;;;11.10;5.03;;;4.60;99.90;;;;;;5092521;28;20932;-69
2022/02/05 06:25:17;;;;;;;12.50;4.70;;;4.60;1.00;;;;;;5092889;28;20566;-69
2022/02/05 06:27:44;;;;;;;12.63;5.13;;;4.60;99.90;;;;;;5091451;28;20201;-69
2022/02/05 06:30:12;;;;;;;13.83;4.73;;;4.70;99.90;;;;;;5093913;28;20655;-69
2022/02/05 06:32:39;;;;;;;8.70;4.43;;;4.60;1.00;;;;;;5093623;28;20198;-69
2022/02/05 06:35:07;;;;;;;10.90;6.23;;;4.70;1.00;;;;;;5093562;28;20618;-69
2022/02/05 06:37:35;;;;;;;11.23;5.00;;;4.60;1.00;;;;;;5093531;28;20383;-69
2022/02/05 06:40:02;;;;;;;12.43;5.63;;;4.70;1.00;;;;;;5093331;28;20562;-75
2022/02/05 06:42:29;;;;;;;14.63;4.73;;;4.70;1.00;;;;;;5087264;28;20678;-69
2022/02/05 06:44:56;;;;;;;11.70;4.93;;;4.70;99.90;;;;;;5078599;28;20285;-70
2022/02/05 06:47:22;;;;;;;13.57;4.63;;;4.70;99.90;;;;;;5079673;28;20202;-69
2022/02/05 06:49:49;;;;;;;13.53;4.80;;;4.70;99.90;;;;;;5072999;28;20233;-69
2022/02/05 06:52:16;;;;;;;12.73;4.53;;;4.70;1.00;;;;;;5078455;28;20201;-69
2022/02/05 06:54:44;;;;;;;10.80;4.53;;;4.60;73.50;;;;;;5093052;28;20234;-69
2022/02/05 06:57:11;;;;;;;10.53;4.07;;;4.50;99.90;;;;;;5093269;28;20186;-69
2022/02/05 06:59:38;;;;;;;9.73;5.10;;;4.50;99.90;;;;;;5093229;28;20213;-69
2022/02/05 07:02:05;;;;;;;16.50;5.13;;;4.50;1.00;;;;;;5093027;28;20292;-69
2022/02/05 07:04:32;;;;;;;11.40;4.60;;;4.50;1.00;;;;;;5093099;28;20197;-69
2022/02/05 07:06:59;;;;;;;11.87;4.77;;;4.40;1.00;;;;;;5093251;28;20232;-69
2022/02/05 07:09:28;;;;;;;13.57;4.50;;;4.30;1.00;;;;;;5092896;28;20265;-69
2022/02/05 07:11:58;;;;;;;12.37;4.67;;;4.40;1.00;;;;;;5092843;28;20201;-69
2022/02/05 07:14:30;;;;;;;14.57;4.13;;;4.40;99.90;;;;;;5092971;28;20296;-69
2022/02/05 07:17:03;;;;;;;14.73;4.43;;;4.40;99.90;;;;;;5092695;28;20202;-69
2022/02/05 07:19:41;;;;;;;9.57;4.20;;;4.30;99.90;;;;;;5092830;28;20198;-69
2022/02/05 07:22:09;;;;;;;13.03;4.60;;;4.30;99.90;;;;;;5092626;28;20189;-69
2022/02/05 07:24:53;;;;;;;14.60;4.20;;;4.30;99.90;;;;;;5092476;28;20233;-68
2022/02/05 07:30:07;;;;;;;14.47;5.23;;;4.30;99.90;;;;;;5092520;28;20342;-68
2022/02/05 07:32:34;;;;;;;12.07;4.53;;;4.40;1.00;;;;;;5092211;28;20194;-68
2022/02/05 07:35:01;;;;;;;12.80;4.00;;;4.50;99.90;;;;;;5092570;28;20634;-69
2022/02/05 07:37:28;;;;;;;12.83;4.80;;;4.40;1.00;;;;;;5092481;28;20715;-69
2022/02/05 07:39:55;;;;;;;14.90;5.47;;;4.20;1.00;;;;;;5092407;28;20202;-69
2022/02/05 07:42:24;;;;;;;17.57;5.37;;;4.20;22.00;;;;;;5092166;28;20212;-69
2022/02/05 07:44:51;;;;;;;11.23;4.80;;;4.10;1.00;;;;;;5090548;28;20214;-69
2022/02/05 07:47:21;;;;;;;12.90;4.77;;;4.10;1.00;;;;;;5094971;28;20244;-69
2022/02/05 07:49:48;;;;;;;16.07;4.60;;;4.20;99.90;;;;;;5090397;28;20225;-69
2022/02/05 07:52:15;;;;;;;11.87;4.40;;;4.30;1.00;;;;;;5089980;28;20201;-69
2022/02/05 07:54:42;;;;;;;11.30;4.20;;;4.30;97.00;;;;;;5090550;28;20659;-69
2022/02/05 07:57:09;;;;;;;16.67;4.50;;;4.50;1.00;;;;;;5091708;28;20201;-69
2022/02/05 07:59:37;;;;;;;13.60;4.17;;;4.50;1.00;;;;;;5091595;28;20674;-69
2022/02/05 08:02:05;;;;;;;10.37;4.33;;;4.50;1.00;;;;;;5082080;28;20199;-69
2022/02/05 08:04:32;;;;;;;11.13;4.47;;;4.70;1.00;;;;;;5090415;28;20403;-69
2022/02/05 08:07:01;;;;;;;15.33;4.77;;;4.60;1.00;;;;;;5091337;28;20201;-69
2022/02/05 08:09:40;;;;;;;13.53;4.20;;;4.70;1.00;;;;;;5091162;28;20241;-69
2022/02/05 08:12:11;;;;;;;10.40;3.90;;;4.80;1.00;;;;;;5090660;28;20201;-69
2022/02/05 08:14:45;;;;;;;8.80;4.40;;;4.80;99.90;;;;;;5088936;28;20206;-69
2022/02/05 08:17:18;;;;;;;15.07;3.73;;;4.80;1.00;;;;;;5087748;28;20205;-69
2022/02/05 08:19:45;;;;;;;12.70;4.20;;;4.80;99.90;;;;;;5089951;28;20608;-72
2022/02/05 08:22:12;;;;;;;14.17;4.67;;;4.80;1.00;;;;;;5091074;28;20197;-73
2022/02/05 08:24:39;;;;;;;12.60;4.33;;;4.90;1.00;;;;;;5081881;28;20632;-71
2022/02/05 08:27:07;;;;;;;20.47;4.07;;;5.00;99.90;;;;;;5069426;28;20198;-70
2022/02/05 08:29:36;;;;;;;9.83;3.83;;;5.10;1.00;;;;;;5091704;28;20229;-71
2022/02/05 08:32:05;;;;;;;11.13;3.60;;;5.10;99.90;;;;;;5083778;28;20689;-71
2022/02/05 08:34:32;;;;;;;13.50;4.60;;;5.10;1.00;;;;;;5090684;28;20255;-71
2022/02/05 08:36:59;;;;;;;14.77;5.43;;;5.00;99.90;;;;;;5090330;28;21050;-70
2022/02/05 08:39:27;;;;;;;10.03;4.10;;;5.10;99.90;;;;;;5090417;28;20206;-72
2022/02/05 08:41:54;;;;;;;10.80;3.83;;;5.10;99.90;;;;;;5089413;28;20790;-71
2022/02/05 08:44:21;;;;;;;14.07;3.70;;;5.10;99.90;;;;;;5080917;28;20251;-72
2022/02/05 08:46:48;;;;;;;12.27;4.37;;;5.20;1.00;;;;;;5086313;28;20706;-71
2022/02/05 08:49:16;;;;;;;13.63;4.50;;;5.20;1.00;;;;;;5087809;28;20224;-71
2022/02/05 08:51:43;;;;;;;9.10;4.07;;;5.20;1.00;;;;;;5090131;28;20197;-71
2022/02/05 08:54:10;;;;;;;12.37;3.70;;;5.20;1.00;;;;;;5089941;28;20674;-71
2022/02/05 08:56:37;;;;;;;11.83;4.33;;;5.20;1.00;;;;;;5087606;28;20190;-70
2022/02/05 08:59:04;;;;;;;12.57;4.47;;;5.30;1.00;;;;;;5091065;28;20214;-70
2022/02/05 09:01:45;;;;;;;12.40;4.27;;;5.30;1.00;;;;;;5092684;28;20285;-70
2022/02/05 09:04:19;;;;;;;11.73;4.10;;;5.40;1.00;;;;;;5093891;28;20202;-70
2022/02/05 09:06:49;;;;;;;10.43;3.37;;;5.50;1.00;;;;;;5092346;28;20197;-70
2022/02/05 09:09:28;;;;;;;7.97;3.40;;;5.70;99.90;;;;;;5093487;28;20584;-70
2022/02/05 09:12:13;;;;;;;12.23;3.60;;;5.90;98.60;;;;;;5092048;28;20227;-71
2022/02/05 09:14:43;;;;;;;14.50;3.47;;;5.80;99.90;;;;;;5093387;28;20198;-69
2022/02/05 09:17:11;;;;;;;13.13;3.83;;;5.70;99.90;;;;;;5092409;28;20232;-69
2022/02/05 09:19:38;;;;;;;9.50;3.60;;;5.80;99.90;;;;;;5089292;28;20263;-70
2022/02/05 09:22:07;;;;;;;12.23;3.87;;;6.20;1.00;;;;;;5089641;28;20746;-70
2022/02/05 09:24:35;;;;;;;10.10;3.03;;;6.00;99.90;;;;;;5092790;28;20206;-70
2022/02/05 09:27:04;;;;;;;7.00;3.27;;;5.90;99.90;;;;;;5092819;28;20189;-70
2022/02/05 09:29:38;;;;;;;9.23;3.40;;;6.10;99.90;;;;;;5090086;28;20252;-71
2022/02/05 09:32:06;;;;;;;13.10;3.97;;;6.00;99.90;;;;;;5092548;28;20198;-70
2022/02/05 09:34:33;;;;;;;10.73;3.53;;;5.90;1.00;;;;;;5090621;28;20198;-69
2022/02/05 09:37:00;;;;;;;9.97;3.60;;;5.90;99.90;;;;;;5087530;28;20198;-70
2022/02/05 09:39:29;;;;;;;10.40;4.10;;;5.80;99.90;;;;;;5092388;28;20202;-69
2022/02/05 09:41:56;;;;;;;11.37;3.63;;;5.80;99.90;;;;;;5089293;28;20233;-70
2022/02/05 09:44:28;;;;;;;9.37;3.73;;;5.90;99.90;;;;;;5092242;28;20478;-70
2022/02/05 09:46:55;;;;;;;9.53;3.97;;;6.10;99.90;;;;;;5088886;28;20251;-73
2022/02/05 09:49:25;;;;;;;14.67;3.73;;;6.30;99.90;;;;;;5091341;28;20257;-73
2022/02/05 09:52:06;;;;;;;7.47;3.00;;;6.20;1.00;;;;;;5085655;28;20210;-73
2022/02/05 09:54:35;;;;;;;10.23;3.70;;;6.00;1.00;;;;;;5092205;28;20671;-73
2022/02/05 09:57:03;;;;;;;9.90;3.60;;;5.90;99.90;;;;;;5092389;28;20282;-73
2022/02/05 09:59:31;;;;;;;7.13;3.40;;;5.80;99.90;;;;;;5085093;28;20198;-73
2022/02/05 10:02:21;;;;;;;9.40;3.60;;;5.70;1.00;;;;;;5089639;28;20671;-72
2022/02/05 10:04:57;;;;;;;9.70;4.07;;;5.70;1.00;;;;;;5089505;28;20212;-72
2022/02/05 10:07:25;;;;;;;8.80;4.20;;;5.90;1.00;;;;;;5089792;28;20581;-73
2022/02/05 10:10:00;;;;;;;10.27;4.00;;;6.00;1.00;;;;;;5084145;28;20225;-72
2022/02/05 10:12:27;;;;;;;7.83;3.70;;;6.10;1.00;;;;;;5087728;28;20351;-72
2022/02/05 10:14:56;;;;;;;11.80;4.00;;;6.10;99.90;;;;;;5089206;28;20200;-73
2022/02/05 10:17:38;;;;;;;15.23;4.67;;;6.10;80.00;;;;;;5087702;28;20209;-72
2022/02/05 10:20:06;;;;;;;10.27;4.13;;;6.20;99.90;;;;;;5092415;28;20197;-72
2022/02/05 10:22:38;;;;;;;13.70;5.57;;;6.40;1.00;;;;;;5089480;28;20255;-72
2022/02/05 10:25:18;;;;;;;13.07;4.60;;;6.40;1.00;;;;;;5091556;28;20651;-73
2022/02/05 10:27:46;;;;;;;12.03;4.10;;;6.50;1.00;;;;;;5088453;28;20208;-69
2022/02/05 10:30:18;;;;;;;10.90;4.57;;;6.60;1.00;;;;;;5087849;28;20927;-68
2022/02/05 10:32:49;;;;;;;12.17;3.90;;;6.60;1.00;;;;;;5090051;28;20229;-68
2022/02/05 10:35:32;;;;;;;14.73;3.87;;;6.50;1.00;;;;;;5081822;28;20833;-69
2022/02/05 10:38:13;;;;;;;7.50;3.50;;;6.50;1.00;;;;;;5092607;28;20194;-68
2022/02/05 10:40:45;;;;;;;10.67;3.67;;;6.70;1.00;;;;;;5087053;28;20662;-69
2022/02/05 10:43:13;;;;;;;9.20;3.70;;;6.70;1.00;;;;;;5089918;28;20251;-69
2022/02/05 10:45:44;;;;;;;12.30;3.77;;;6.90;1.00;;;;;;5084950;28;20233;-68
2022/02/05 10:48:12;;;;;;;11.90;3.30;;;6.80;1.00;;;;;;5087525;28;20201;-69
2022/02/05 10:50:39;;;;;;;7.43;3.27;;;6.50;1.00;;;;;;5090118;28;20236;-68
2022/02/05 10:53:16;;;;;;;9.73;3.50;;;6.60;1.00;;;;;;5093097;28;20216;-69
2022/02/05 10:55:54;;;;;;;11.53;3.17;;;6.90;1.00;;;;;;5090201;28;20289;-69
2022/02/05 10:58:31;;;;;;;10.00;3.40;;;6.80;1.00;;;;;;5070038;28;20237;-68
2022/02/05 11:06:42;;;;;;;10.93;3.43;;;6.80;96.10;;;;;;5089347;28;20205;-69
2022/02/05 11:09:09;;;;;;;12.63;3.47;;;7.00;99.90;;;;;;5085359;28;20208;-69
2022/02/05 11:19:54;;;;;;;10.50;3.30;;;7.10;29.20;;;;;;5070627;28;20190;-69
2022/02/05 11:22:21;;;;;;;12.47;3.67;;;7.00;99.90;;;;;;5087623;28;20612;-69
2022/02/05 11:24:50;;;;;;;8.43;3.30;;;7.00;99.90;;;;;;5087906;28;20823;-69
2022/02/05 11:27:19;;;;;;;12.77;3.83;;;6.90;3.70;;;;;;5088166;28;20198;-68
2022/02/05 11:29:46;;;;;;;9.43;3.50;;;6.70;6.10;;;;;;5085912;28;20282;-68
2022/02/05 11:32:22;;;;;;;7.97;3.10;;;6.70;1.00;;;;;;5089204;28;20278;-69
2022/02/05 11:35:04;;;;;;;14.07;4.13;;;6.70;98.90;;;;;;5084601;28;20229;-69
2022/02/05 11:37:32;;;;;;;14.10;3.97;;;6.70;1.00;;;;;;5088076;28;20201;-68
2022/02/05 11:39:59;;;;;;;9.20;2.80;;;6.90;1.00;;;;;;5089307;28;20194;-69
2022/02/05 11:42:30;;;;;;;11.63;3.70;;;6.90;1.00;;;;;;5089992;28;20197;-68
2022/02/05 11:44:58;;;;;;;13.57;2.97;;;7.00;1.00;;;;;;5087247;28;20255;-69
2022/02/05 11:47:27;;;;;;;7.20;2.97;;;7.30;1.00;;;;;;5087890;28;20209;-69
2022/02/05 11:50:16;;;;;;;9.37;2.80;;;7.50;1.00;;;;;;5087580;28;20237;-69
2022/02/05 11:52:57;;;;;;;8.93;3.03;;;7.60;1.00;;;;;;5088024;28;20211;-69
2022/02/05 11:55:33;;;;;;;9.90;2.87;;;7.80;1.00;;;;;;5088201;28;20202;-68
2022/02/05 11:58:03;;;;;;;10.73;2.87;;;8.20;99.90;;;;;;5086810;28;20638;-68
2022/02/05 12:00:34;;;;;;;10.07;2.50;;;8.50;99.90;;;;;;5084746;28;20198;-69
2022/02/05 12:03:18;;;;;;;5.53;2.57;;;8.50;95.00;;;;;;5088228;28;20747;-69
2022/02/05 12:05:54;;;;;;;8.23;2.90;;;8.40;99.90;;;;;;5089142;28;20292;-69
2022/02/05 12:08:28;;;;;;;8.83;2.77;;;8.60;99.90;;;;;;5081966;28;20585;-69
2022/02/05 12:10:58;;;;;;;10.50;2.40;;;8.50;99.90;;;;;;5088440;28;20311;-69
2022/02/05 12:13:33;;;;;;;12.80;3.30;;;7.90;26.80;;;;;;5085842;28;20229;-73
2022/02/05 12:16:21;;;;;;;10.53;2.77;;;7.50;99.90;;;;;;5087786;28;20643;-72
2022/02/05 12:19:17;;;;;;;6.83;2.30;;;7.30;99.90;;;;;;5088083;28;20248;-71
2022/02/05 12:21:59;;;;;;;10.90;2.60;;;7.40;99.90;;;;;;5046902;28;20225;-70
2022/02/05 12:24:42;;;;;;;6.37;2.30;;;7.30;99.90;;;;;;5087117;28;20681;-70
2022/02/05 12:27:35;;;;;;;13.03;3.37;;;7.30;99.90;;;;;;5087431;28;20654;-70
2022/02/05 12:30:42;;;;;;;10.93;3.00;;;7.20;99.90;;;;;;5084944;28;20226;-70
2022/02/05 12:33:11;;;;;;;10.83;3.10;;;7.20;99.90;;;;;;5087767;28;20208;-70
2022/02/05 12:35:50;;;;;;;14.43;3.53;;;7.30;99.90;;;;;;5093097;28;20287;-71
2022/02/05 12:38:17;;;;;;;8.57;2.63;;;7.20;99.90;;;;;;5093263;28;20210;-71
2022/02/05 12:40:46;;;;;;;8.80;2.87;;;7.20;99.90;;;;;;5091688;28;20276;-70
2022/02/05 12:43:14;;;;;;;7.27;3.03;;;7.20;99.90;;;;;;5092448;28;20868;-70
2022/02/05 12:45:54;;;;;;;11.70;2.70;;;7.30;99.90;;;;;;5091111;28;20652;-70
2022/02/05 12:48:24;;;;;;;7.33;2.83;;;7.40;1.00;;;;;;5091886;28;20201;-70
2022/02/05 12:50:51;;;;;;;8.67;2.70;;;7.30;99.90;;;;;;5091404;28;20210;-70
2022/02/05 12:53:18;;;;;;;9.43;2.80;;;7.50;99.90;;;;;;5091782;28;20201;-70
2022/02/05 12:55:47;;;;;;;7.73;2.97;;;8.30;99.90;;;;;;5090812;28;20458;-71
2022/02/05 12:58:18;;;;;;;8.17;3.33;;;7.80;99.90;;;;;;5092244;28;20271;-70
2022/02/05 13:01:04;;;;;;;9.30;3.10;;;7.50;99.90;;;;;;5091576;28;20648;-70
2022/02/05 13:03:31;;;;;;;14.03;4.70;;;7.40;99.90;;;;;;5088694;28;20562;-70
2022/02/05 13:05:58;;;;;;;7.87;2.60;;;8.10;99.90;;;;;;5091186;28;20321;-71
2022/02/05 13:08:27;;;;;;;6.00;2.60;;;8.30;99.90;;;;;;5091784;28;20659;-71
2022/02/05 13:10:54;;;;;;;9.20;3.17;;;8.50;43.20;;;;;;5086152;28;20312;-70
2022/02/05 13:13:22;;;;;;;10.00;2.93;;;8.50;23.80;;;;;;5089082;28;20711;-70
2022/02/05 13:15:54;;;;;;;8.37;3.27;;;8.50;1.00;;;;;;5089503;28;20210;-70
2022/02/05 13:18:30;;;;;;;8.73;3.20;;;8.50;1.00;;;;;;5086376;28;20206;-70
2022/02/05 13:26:54;;;;;;;6.83;3.33;;;7.90;91.20;;;;;;5011439;28;20210;-68
2022/02/05 13:29:27;;;;;;;6.97;3.47;;;8.00;99.90;;;;;;5009635;28;20227;-69
2022/02/05 13:34:41;;;;;;;8.80;3.63;;;7.90;1.00;;;;;;5086284;28;20343;-69
2022/02/05 13:37:16;;;;;;;5.73;3.23;;;7.70;1.00;;;;;;5087410;28;20288;-69
2022/02/05 13:39:55;;;;;;;7.03;3.13;;;7.70;9.60;;;;;;5091027;28;20208;-69
2022/02/05 13:42:25;;;;;;;9.80;4.43;;;7.60;99.90;;;;;;5092159;28;20604;-69
2022/02/05 13:44:56;;;;;;;8.73;3.27;;;7.50;99.90;;;;;;5089404;28;20205;-69
2022/02/05 13:47:27;;;;;;;5.73;3.20;;;7.70;99.90;;;;;;5091359;28;20213;-68
2022/02/05 13:50:08;;;;;;;5.90;3.30;;;7.50;99.90;;;;;;5085536;28;20216;-69
2022/02/05 13:52:38;;;;;;;8.30;3.33;;;7.40;41.50;;;;;;5088120;28;20235;-69
2022/02/05 13:55:20;;;;;;;6.50;2.70;;;7.30;99.90;;;;;;5092204;28;20202;-69
2022/02/05 13:57:58;;;;;;;9.67;3.77;;;7.30;99.90;;;;;;5088903;28;20202;-69
2022/02/05 14:00:37;;;;;;;6.30;3.37;;;7.20;99.90;;;;;;5089089;28;20207;-69
2022/02/05 14:03:08;;;;;;;10.27;3.60;;;7.20;99.90;;;;;;5092032;28;20209;-69
2022/02/05 14:05:35;;;;;;;6.07;3.57;;;7.00;99.90;;;;;;5091672;28;20208;-69
2022/02/05 14:08:03;;;;;;;8.80;3.73;;;7.00;99.90;;;;;;5087326;28;20209;-69
2022/02/05 14:10:31;;;;;;;7.77;3.90;;;6.90;1.00;;;;;;5088405;28;20233;-69
2022/02/05 14:12:59;;;;;;;7.57;4.03;;;6.90;1.00;;;;;;5087026;28;20237;-69
2022/02/05 14:15:28;;;;;;;9.70;4.30;;;6.90;1.00;;;;;;5089505;28;20217;-69
2022/02/05 14:18:16;;;;;;;7.93;3.67;;;6.80;1.00;;;;;;5085858;28;20206;-69
2022/02/05 14:20:51;;;;;;;13.07;4.50;;;6.80;99.90;;;;;;5082866;28;20206;-69
2022/02/05 14:23:20;;;;;;;13.53;4.20;;;6.80;99.90;;;;;;5090837;28;20193;-68
2022/02/05 14:25:49;;;;;;;9.00;4.50;;;6.80;1.00;;;;;;5089175;28;20206;-69
2022/02/05 14:28:26;;;;;;;4.50;2.97;;;6.80;1.00;;;;;;5090914;28;20635;-69
2022/02/05 14:31:04;;;;;;;7.57;4.47;;;6.80;1.00;;;;;;5088473;28;20220;-68
2022/02/05 14:33:42;;;;;;;11.27;4.33;;;6.80;1.00;;;;;;5089011;28;20674;-69
2022/02/05 14:36:19;;;;;;;9.97;3.97;;;6.80;1.00;;;;;;5086978;28;20209;-68
2022/02/05 14:41:32;;;;;;;8.70;3.47;;;6.80;1.00;;;;;;5088114;28;20236;-68
2022/02/05 14:43:59;;;;;;;7.77;3.87;;;6.80;1.00;;;;;;5088640;28;20206;-69
2022/02/05 14:46:26;;;;;;;8.03;4.10;;;6.80;1.00;;;;;;5083733;28;20858;-69
2022/02/05 14:48:54;;;;;;;9.73;4.30;;;6.80;1.00;;;;;;5090902;28;20202;-68
2022/02/05 14:51:21;;;;;;;7.63;4.10;;;6.70;1.00;;;;;;5089161;28;20222;-69
2022/02/05 14:53:47;;;;;;;9.50;4.47;;;6.70;1.00;;;;;;5089385;28;20550;-69
2022/02/05 14:56:14;;;;;;;10.87;4.67;;;6.70;1.00;;;;;;5088618;28;20640;-69
2022/02/05 14:58:41;;;;;;;9.70;5.33;;;6.60;1.00;;;;;;5089185;28;20292;-68